Tropical Cyclones
[Index]
Main Index Home Page Stock Weather Photos Extreme Storms Discussion Storm News and Storm Chasing Reports Tropical Cyclones / Hurricanes / Typhoons Weather Data and Links Wild Fires / Bushfires Weather Observation Techniques Weather Picture Catalogue Tornado Pictures and Reports Stock Video Footage and DVDs for sale
Season 1983-1984 Tropical Cyclone JIM Track Map
Season 1983-1984 Summaries: [BoM-AU] [JTWC-AU] [JTWC-SIO] [JTWC-SPAC] [JTWC-SH]
<<- Previous TC | BoM 1983-1984 Season | Next TC ->>

click for intensity scale information  Lat/long Grid: Show Hide

 Date Labels: Show Hide

Bureau of Meteorology Tropical Cyclone Data

Name: JIM
Number: 659 / 198384_18

05 Mar 1984 21:00 UTC to 10 Mar 1984 00:00 UTC

    date/time    lat    long    hPa   cat  kts
1984-03-05 21   11.6   151.4   1004                     
1984-03-06 00   11.6   150.7   1005                     
1984-03-06 06   11.6   149.3   1003                     
1984-03-06 12   11.6   148.1   1004                     
1984-03-06 18   11.5   147.2   1003                     
1984-03-07 00   11.3   146.3   1003                     
1984-03-07 06   11.3   145.7    995    1                
1984-03-07 09   11.3   145.3    992    1                
1984-03-07 12   11.4   144.9    990    1                
1984-03-07 15   11.6   144.5    985    2                
1984-03-07 18   11.8   144.1    980    2                
1984-03-07 21   12.0   143.6    980    2                
1984-03-08 00   12.3   143.1    990    1                
1984-03-08 03   12.1   142.7    995    1                
1984-03-08 06   12.1   142.2    995    1                
1984-03-08 09   12.2   141.6    992    1                
1984-03-08 12   12.5   141.1    988    1                
1984-03-08 15   12.8   140.6    986    1                
1984-03-08 18   13.2   140.0    984    2                
1984-03-08 21   13.4   139.5    982    2                
1984-03-09 00   13.7   139.0    980    2                
1984-03-09 03   14.0   138.4    978    2                
1984-03-09 06   14.3   137.7    976    2    56          
1984-03-09 12   14.6   136.6    974    2    56          
1984-03-09 18   14.8   135.5    970    3    68          
1984-03-09 21   14.8   134.9    990    1    56          
1984-03-10 00   14.9   134.0   1000         41          
Winds are 10-min average.

Tropical cyclone tracks developed by Michael Bath using data from the Bureau of Meteorology and Google Maps.


[Australian Severe Weather index] [Copyright Notice] [Email Contacts] [Search This Site] [Privacy Policy]
Document: tropical_cyclone_jim.htm Updated: 30 May 2013